Hovedside
METAR-TAF:

METAR-TAF

Lufthavner :

Kiruna, Sverige

Kiruna lufthavn

breddegrad: 67-49N, lengdegrad: 020-20E, høyde over havet: 452 m

Gjeldene værobservasjon

Denne rapporten ble laget for 25 minutter siden, klokken 07:20 UTC
Vind 11 kt fra Sør
Temperatur -5°C
Luftfuktighet 93%
Trykk 1022 hPa
Få skyer i en høyde av 1200 ft

METAR: ESNQ 240720Z 19011KT FEW012 M05/M06 Q1022

Tid: 09:45 (07:45 UTC)

Varsel

Denne rapporten ble laget for 1 time og 17 minutter siden, klokken 06:28 UTC
Varsel gyldig fra 24. klokken 06 UTC til 24. klokken 15 UTC
Vind 10 kt fra Sør-sørvest
Sikt 10 km eller mer
Spredte skyer i en høyde av 2000 ft
Sannsynlighet 40%
fra 24. klokken 06 UTC til 24. klokken 12 UTC
Brutte skyer i en høyde av 1200 ft

TAF: ESNQ 240628Z 2406/2415 21010KT 9999 SCT020 PROB40 2406/2412 BKN012

Værobservasjoner og værvarsel for over 4000 flyplasser (METAR- og TAF-rapporter).

Tilgjengelige stasjoner er representert av de røde og gule prikkene på kartet.

Hold musepekeren over prikken for å se navnet på stasjonen.

Klikk så for å se værobservasjoner og -varsler.

For å forandre kartet kan du klikke på den grønne knappen med svart kryss for å zoome inn, på den grønne knappen med strek for å zoome ut, eller på de grønne pilene for å se tilstøtende kart.


METAR-TAF: